sensor_id;sensor_type;location;lat;lon;timestamp;pressure;altitude;pressure_sealevel;temperature;humidity
18988;BME280;5494;51.796;10.952;2023-01-30T00:46:41;98710.00;;;1.35;100.00
18988;BME280;5494;51.796;10.952;2023-01-30T00:49:47;98709.16;;;1.33;100.00
18988;BME280;5494;51.796;10.952;2023-01-30T00:52:35;98696.38;;;1.32;100.00
18988;BME280;5494;51.796;10.952;2023-01-30T00:55:24;98651.28;;;1.25;100.00
18988;BME280;5494;51.796;10.952;2023-01-30T01:13:27;98650.69;;;1.56;100.00
18988;BME280;5494;51.796;10.952;2023-01-30T01:16:16;98686.47;;;1.59;100.00
18988;BME280;5494;51.796;10.952;2023-01-30T01:19:05;98708.84;;;1.51;100.00
18988;BME280;5494;51.796;10.952;2023-01-30T01:21:53;98731.66;;;1.64;100.00
18988;BME280;5494;51.796;10.952;2023-01-30T01:24:42;98740.94;;;1.69;100.00
18988;BME280;5494;51.796;10.952;2023-01-30T01:27:31;98723.09;;;1.65;100.00
18988;BME280;5494;51.796;10.952;2023-01-30T01:30:21;98710.25;;;1.66;100.00
18988;BME280;5494;51.796;10.952;2023-01-30T01:33:09;98671.66;;;1.74;100.00
18988;BME280;5494;51.796;10.952;2023-01-30T01:35:57;98654.69;;;1.70;100.00
18988;BME280;5494;51.796;10.952;2023-01-30T01:38:46;98630.81;;;1.68;100.00
18988;BME280;5494;51.796;10.952;2023-01-30T01:41:34;98611.09;;;1.71;100.00
18988;BME280;5494;51.796;10.952;2023-01-30T01:44:24;98594.03;;;1.70;100.00
18988;BME280;5494;51.796;10.952;2023-01-30T01:47:13;98604.22;;;1.73;100.00
18988;BME280;5494;51.796;10.952;2023-01-30T01:50:04;98579.44;;;1.74;100.00
18988;BME280;5494;51.796;10.952;2023-01-30T01:52:59;98561.13;;;1.90;100.00
18988;BME280;5494;51.796;10.952;2023-01-30T01:55:53;98560.34;;;1.87;100.00
18988;BME280;5494;51.796;10.952;2023-01-30T01:58:49;98563.59;;;1.95;100.00
18988;BME280;5494;51.796;10.952;2023-01-30T02:01:39;98579.28;;;1.81;100.00
18988;BME280;5494;51.796;10.952;2023-01-30T02:04:31;98579.31;;;1.80;100.00
18988;BME280;5494;51.796;10.952;2023-01-30T02:07:45;98569.50;;;1.98;100.00
18988;BME280;5494;51.796;10.952;2023-01-30T02:10:44;98567.47;;;2.13;100.00
18988;BME280;5494;51.796;10.952;2023-01-30T02:13:36;98564.03;;;2.14;100.00
18988;BME280;5494;51.796;10.952;2023-01-30T02:16:24;98568.56;;;2.01;100.00
18988;BME280;5494;51.796;10.952;2023-01-30T02:19:25;98548.16;;;1.98;100.00
18988;BME280;5494;51.796;10.952;2023-01-30T02:23:09;98527.38;;;2.09;100.00
18988;BME280;5494;51.796;10.952;2023-01-30T02:26:46;98520.31;;;2.18;100.00
18988;BME280;5494;51.796;10.952;2023-01-30T02:33:38;98491.63;;;2.04;100.00
18988;BME280;5494;51.796;10.952;2023-01-30T02:36:40;98476.09;;;2.10;100.00
18988;BME280;5494;51.796;10.952;2023-01-30T02:39:48;98468.06;;;2.22;100.00
18988;BME280;5494;51.796;10.952;2023-01-30T02:42:53;98469.97;;;2.16;100.00
18988;BME280;5494;51.796;10.952;2023-01-30T02:45:54;98470.22;;;2.07;100.00
18988;BME280;5494;51.796;10.952;2023-01-30T02:48:48;98435.00;;;2.13;100.00
18988;BME280;5494;51.796;10.952;2023-01-30T02:51:42;98435.72;;;2.18;100.00
18988;BME280;5494;51.796;10.952;2023-01-30T02:54:31;98428.00;;;2.20;100.00
18988;BME280;5494;51.796;10.952;2023-01-30T02:57:22;98428.09;;;2.15;100.00
18988;BME280;5494;51.796;10.952;2023-01-30T03:00:20;98395.34;;;2.26;100.00
18988;BME280;5494;51.796;10.952;2023-01-30T03:03:25;98363.69;;;2.27;100.00
18988;BME280;5494;51.796;10.952;2023-01-30T03:06:46;98363.69;;;2.27;100.00
18988;BME280;5494;51.796;10.952;2023-01-30T03:09:50;98369.88;;;2.20;100.00
18988;BME280;5494;51.796;10.952;2023-01-30T03:12:51;98354.72;;;2.11;100.00
18988;BME280;5494;51.796;10.952;2023-01-30T03:15:47;98358.28;;;2.07;100.00
18988;BME280;5494;51.796;10.952;2023-01-30T03:18:40;98339.59;;;2.02;100.00
18988;BME280;5494;51.796;10.952;2023-01-30T03:21:29;98347.31;;;2.01;100.00
18988;BME280;5494;51.796;10.952;2023-01-30T03:24:19;98328.66;;;1.95;100.00
18988;BME280;5494;51.796;10.952;2023-01-30T03:27:11;98332.22;;;1.91;100.00
18988;BME280;5494;51.796;10.952;2023-01-30T03:30:01;98338.34;;;1.86;100.00
18988;BME280;5494;51.796;10.952;2023-01-30T03:32:49;98314.47;;;1.84;100.00
18988;BME280;5494;51.796;10.952;2023-01-30T03:35:38;98318.69;;;1.86;100.00
18988;BME280;5494;51.796;10.952;2023-01-30T03:38:26;98340.84;;;1.87;100.00
18988;BME280;5494;51.796;10.952;2023-01-30T03:41:16;98298.13;;;1.88;100.00
18988;BME280;5494;51.796;10.952;2023-01-30T03:44:04;98345.03;;;1.91;100.00
18988;BME280;5494;51.796;10.952;2023-01-30T03:46:53;98346.56;;;1.97;100.00
18988;BME280;5494;51.796;10.952;2023-01-30T03:49:42;98352.44;;;2.01;100.00
18988;BME280;5494;51.796;10.952;2023-01-30T03:52:33;98339.69;;;1.99;100.00
18988;BME280;5494;51.796;10.952;2023-01-30T03:55:21;98334.66;;;1.94;100.00
18988;BME280;5494;51.796;10.952;2023-01-30T03:58:12;98281.78;;;1.93;100.00
18988;BME280;5494;51.796;10.952;2023-01-30T04:01:00;98271.41;;;1.96;100.00
18988;BME280;5494;51.796;10.952;2023-01-30T04:03:48;98292.06;;;1.92;100.00
18988;BME280;5494;51.796;10.952;2023-01-30T04:06:37;98264.63;;;1.94;100.00
18988;BME280;5494;51.796;10.952;2023-01-30T04:09:25;98302.88;;;2.02;100.00
18988;BME280;5494;51.796;10.952;2023-01-30T04:12:13;98302.88;;;2.02;100.00
18988;BME280;5494;51.796;10.952;2023-01-30T04:15:12;98306.06;;;2.10;100.00
18988;BME280;5494;51.796;10.952;2023-01-30T04:18:06;98331.69;;;2.10;100.00
18988;BME280;5494;51.796;10.952;2023-01-30T04:21:08;98327.38;;;2.12;100.00
18988;BME280;5494;51.796;10.952;2023-01-30T04:23:58;98296.66;;;2.10;100.00
18988;BME280;5494;51.796;10.952;2023-01-30T04:26:46;98313.72;;;2.11;100.00
18988;BME280;5494;51.796;10.952;2023-01-30T04:29:35;98344.25;;;2.20;100.00
18988;BME280;5494;51.796;10.952;2023-01-30T04:32:27;98329.63;;;2.22;100.00
18988;BME280;5494;51.796;10.952;2023-01-30T04:35:16;98345.66;;;2.30;100.00
18988;BME280;5494;51.796;10.952;2023-01-30T04:38:05;98335.22;;;2.36;100.00
18988;BME280;5494;51.796;10.952;2023-01-30T04:40:56;98316.38;;;2.37;100.00
18988;BME280;5494;51.796;10.952;2023-01-30T04:43:47;98314.69;;;2.36;100.00
18988;BME280;5494;51.796;10.952;2023-01-30T04:46:43;98308.69;;;2.37;100.00
18988;BME280;5494;51.796;10.952;2023-01-30T04:49:33;98295.00;;;2.38;100.00
18988;BME280;5494;51.796;10.952;2023-01-30T04:52:22;98283.06;;;2.37;100.00
18988;BME280;5494;51.796;10.952;2023-01-30T04:55:11;98287.34;;;2.37;100.00
18988;BME280;5494;51.796;10.952;2023-01-30T04:58:00;98292.34;;;2.42;100.00
18988;BME280;5494;51.796;10.952;2023-01-30T05:00:48;98297.34;;;2.46;100.00
18988;BME280;5494;51.796;10.952;2023-01-30T05:03:37;98278.63;;;2.43;100.00
18988;BME280;5494;51.796;10.952;2023-01-30T05:06:27;98292.94;;;2.50;100.00
18988;BME280;5494;51.796;10.952;2023-01-30T05:09:16;98289.53;;;2.49;100.00
18988;BME280;5494;51.796;10.952;2023-01-30T05:12:05;98311.75;;;2.50;100.00
18988;BME280;5494;51.796;10.952;2023-01-30T05:14:53;98268.03;;;2.55;100.00
18988;BME280;5494;51.796;10.952;2023-01-30T05:17:42;98262.88;;;2.55;100.00
18988;BME280;5494;51.796;10.952;2023-01-30T05:20:30;98274.72;;;2.59;100.00
18988;BME280;5494;51.796;10.952;2023-01-30T05:34:10;98251.41;;;2.66;100.00
18988;BME280;5494;51.796;10.952;2023-01-30T05:36:59;98244.59;;;2.65;100.00
18988;BME280;5494;51.796;10.952;2023-01-30T05:39:47;98260.88;;;2.64;100.00
18988;BME280;5494;51.796;10.952;2023-01-30T05:42:35;98241.16;;;2.66;100.00
18988;BME280;5494;51.796;10.952;2023-01-30T05:45:24;98248.16;;;2.61;100.00
18988;BME280;5494;51.796;10.952;2023-01-30T05:48:12;98252.31;;;2.64;100.00
18988;BME280;5494;51.796;10.952;2023-01-30T05:51:02;98202.69;;;2.65;100.00
18988;BME280;5494;51.796;10.952;2023-01-30T05:53:51;98234.38;;;2.64;100.00
18988;BME280;5494;51.796;10.952;2023-01-30T05:56:40;98213.75;;;2.67;100.00
18988;BME280;5494;51.796;10.952;2023-01-30T05:59:28;98238.44;;;2.71;100.00
18988;BME280;5494;51.796;10.952;2023-01-30T06:02:16;98226.47;;;2.70;100.00
18988;BME280;5494;51.796;10.952;2023-01-30T06:05:05;98226.47;;;2.70;100.00
18988;BME280;5494;51.796;10.952;2023-01-30T06:07:55;98227.44;;;2.67;100.00
18988;BME280;5494;51.796;10.952;2023-01-30T06:10:43;98236.00;;;2.66;100.00
18988;BME280;5494;51.796;10.952;2023-01-30T06:13:32;98224.94;;;2.64;100.00
18988;BME280;5494;51.796;10.952;2023-01-30T06:16:20;98235.97;;;2.68;100.00
18988;BME280;5494;51.796;10.952;2023-01-30T06:19:09;98226.56;;;2.68;100.00
18988;BME280;5494;51.796;10.952;2023-01-30T06:21:57;98225.72;;;2.68;100.00
18988;BME280;5494;51.796;10.952;2023-01-30T06:24:47;98233.41;;;2.68;100.00
18988;BME280;5494;51.796;10.952;2023-01-30T06:27:35;98224.19;;;2.62;100.00
18988;BME280;5494;51.796;10.952;2023-01-30T06:30:24;98235.38;;;2.60;100.00
18988;BME280;5494;51.796;10.952;2023-01-30T06:33:12;98217.50;;;2.57;100.00
18988;BME280;5494;51.796;10.952;2023-01-30T06:36:01;98245.16;;;2.47;100.00
18988;BME280;5494;51.796;10.952;2023-01-30T06:38:50;98241.78;;;2.45;100.00
18988;BME280;5494;51.796;10.952;2023-01-30T06:41:39;98251.22;;;2.45;100.00
18988;BME280;5494;51.796;10.952;2023-01-30T06:44:27;98253.59;;;2.51;100.00
18988;BME280;5494;51.796;10.952;2023-01-30T06:47:16;98266.22;;;2.57;100.00
18988;BME280;5494;51.796;10.952;2023-01-30T06:49:44;98235.25;;;2.63;100.00
18988;BME280;5494;51.796;10.952;2023-01-30T06:52:12;98271.97;;;2.65;100.00
18988;BME280;5494;51.796;10.952;2023-01-30T06:54:39;98254.19;;;2.59;100.00
18988;BME280;5494;51.796;10.952;2023-01-30T06:57:09;98261.09;;;2.57;100.00
18988;BME280;5494;51.796;10.952;2023-01-30T06:59:38;98266.94;;;2.62;100.00
18988;BME280;5494;51.796;10.952;2023-01-30T07:02:08;98269.56;;;2.60;100.00
18988;BME280;5494;51.796;10.952;2023-01-30T07:04:39;98274.66;;;2.62;100.00
18988;BME280;5494;51.796;10.952;2023-01-30T07:07:08;98265.88;;;2.69;100.00
18988;BME280;5494;51.796;10.952;2023-01-30T07:09:36;98259.16;;;2.65;100.00
18988;BME280;5494;51.796;10.952;2023-01-30T07:12:04;98271.97;;;2.65;100.00
18988;BME280;5494;51.796;10.952;2023-01-30T07:14:34;98266.84;;;2.65;100.00
18988;BME280;5494;51.796;10.952;2023-01-30T07:17:04;98270.06;;;2.71;100.00
18988;BME280;5494;51.796;10.952;2023-01-30T07:19:32;98279.47;;;2.71;100.00
18988;BME280;5494;51.796;10.952;2023-01-30T07:22:00;98282.69;;;2.77;100.00
18988;BME280;5494;51.796;10.952;2023-01-30T07:24:29;98256.91;;;2.82;100.00
18988;BME280;5494;51.796;10.952;2023-01-30T07:26:57;98267.03;;;2.87;100.00
18988;BME280;5494;51.796;10.952;2023-01-30T07:29:27;98266.94;;;2.90;100.00
18988;BME280;5494;51.796;10.952;2023-01-30T07:31:56;98269.31;;;2.96;100.00
18988;BME280;5494;51.796;10.952;2023-01-30T07:34:24;98261.16;;;3.09;100.00
18988;BME280;5494;51.796;10.952;2023-01-30T07:36:52;98270.44;;;3.13;100.00
18988;BME280;5494;51.796;10.952;2023-01-30T07:39:20;98272.59;;;3.26;100.00
18988;BME280;5494;51.796;10.952;2023-01-30T07:41:47;98283.56;;;3.31;100.00
18988;BME280;5494;51.796;10.952;2023-01-30T07:44:16;98282.81;;;3.27;100.00
18988;BME280;5494;51.796;10.952;2023-01-30T07:46:44;98278.66;;;3.25;100.00
18988;BME280;5494;51.796;10.952;2023-01-30T07:49:13;98275.13;;;3.27;100.00
18988;BME280;5494;51.796;10.952;2023-01-30T07:51:41;98268.28;;;3.26;100.00
18988;BME280;5494;51.796;10.952;2023-01-30T07:54:10;98280.38;;;3.49;100.00
18988;BME280;5494;51.796;10.952;2023-01-30T07:56:38;98275.81;;;3.82;100.00
18988;BME280;5494;51.796;10.952;2023-01-30T07:59:06;98294.47;;;4.12;100.00
18988;BME280;5494;51.796;10.952;2023-01-30T08:01:34;98289.53;;;4.52;100.00
18988;BME280;5494;51.796;10.952;2023-01-30T08:04:02;98280.31;;;5.12;100.00
18988;BME280;5494;51.796;10.952;2023-01-30T08:06:32;98269.41;;;5.47;100.00
18988;BME280;5494;51.796;10.952;2023-01-30T08:09:06;98266.50;;;5.75;100.00
18988;BME280;5494;51.796;10.952;2023-01-30T08:11:34;98285.31;;;6.18;100.00
18988;BME280;5494;51.796;10.952;2023-01-30T08:14:02;98293.84;;;6.39;100.00
18988;BME280;5494;51.796;10.952;2023-01-30T08:16:30;98288.06;;;6.52;100.00
18988;BME280;5494;51.796;10.952;2023-01-30T08:18:59;98289.38;;;6.80;99.33
18988;BME280;5494;51.796;10.952;2023-01-30T08:21:28;98288.31;;;7.02;94.35
18988;BME280;5494;51.796;10.952;2023-01-30T08:23:57;98309.94;;;7.00;94.38
18988;BME280;5494;51.796;10.952;2023-01-30T08:26:27;98297.19;;;6.78;93.63
18988;BME280;5494;51.796;10.952;2023-01-30T08:28:54;98276.44;;;6.62;92.26
18988;BME280;5494;51.796;10.952;2023-01-30T08:31:22;98279.19;;;6.58;93.48
18988;BME280;5494;51.796;10.952;2023-01-30T08:33:50;98291.09;;;6.62;92.11
18988;BME280;5494;51.796;10.952;2023-01-30T08:36:19;98291.97;;;6.80;91.93
18988;BME280;5494;51.796;10.952;2023-01-30T08:38:46;98286.94;;;6.95;91.13
18988;BME280;5494;51.796;10.952;2023-01-30T10:29:29;98301.06;;;7.59;78.06
18988;BME280;5494;51.796;10.952;2023-01-30T10:32:23;98289.34;;;7.86;73.85
18988;BME280;5494;51.796;10.952;2023-01-30T10:35:18;98300.44;;;8.38;73.04
18988;BME280;5494;51.796;10.952;2023-01-30T10:38:15;98278.88;;;8.05;70.96
18988;BME280;5494;51.796;10.952;2023-01-30T10:41:20;98272.69;;;7.74;71.19
18988;BME280;5494;51.796;10.952;2023-01-30T10:44:12;98318.00;;;7.30;72.96
18988;BME280;5494;51.796;10.952;2023-01-30T10:47:30;98320.19;;;6.84;79.39
18988;BME280;5494;51.796;10.952;2023-01-30T10:50:47;98346.19;;;5.81;98.36
18988;BME280;5494;51.796;10.952;2023-01-30T10:53:44;98328.19;;;4.96;100.00
18988;BME280;5494;51.796;10.952;2023-01-30T10:56:44;98336.09;;;4.69;100.00
18988;BME280;5494;51.796;10.952;2023-01-30T10:59:49;98324.63;;;4.55;100.00
18988;BME280;5494;51.796;10.952;2023-01-30T11:02:58;98317.97;;;4.49;100.00
18988;BME280;5494;51.796;10.952;2023-01-30T11:05:53;98328.00;;;4.79;100.00
18988;BME280;5494;51.796;10.952;2023-01-30T11:08:44;98289.13;;;4.85;100.00
18988;BME280;5494;51.796;10.952;2023-01-30T11:11:48;98307.72;;;5.14;100.00
18988;BME280;5494;51.796;10.952;2023-01-30T11:14:56;98297.03;;;5.45;100.00
18988;BME280;5494;51.796;10.952;2023-01-30T11:17:47;98289.16;;;5.89;100.00
18988;BME280;5494;51.796;10.952;2023-01-30T11:20:40;98260.47;;;5.97;99.81
18988;BME280;5494;51.796;10.952;2023-01-30T11:23:35;98253.44;;;5.80;94.41
18988;BME280;5494;51.796;10.952;2023-01-30T11:26:32;98259.00;;;5.91;93.35
18988;BME280;5494;51.796;10.952;2023-01-30T11:29:33;98260.06;;;6.06;92.58
18988;BME280;5494;51.796;10.952;2023-01-30T11:32:25;98264.75;;;6.16;92.39
18988;BME280;5494;51.796;10.952;2023-01-30T11:35:28;98261.19;;;6.38;91.85
18988;BME280;5494;51.796;10.952;2023-01-30T11:38:21;98258.09;;;6.50;89.48
18988;BME280;5494;51.796;10.952;2023-01-30T11:41:19;98267.06;;;6.60;90.36
18988;BME280;5494;51.796;10.952;2023-01-30T11:44:10;98260.44;;;6.54;89.60
18988;BME280;5494;51.796;10.952;2023-01-30T11:47:01;98257.44;;;6.45;89.80
18988;BME280;5494;51.796;10.952;2023-01-30T11:49:54;98223.75;;;6.48;88.11
18988;BME280;5494;51.796;10.952;2023-01-30T11:53:24;98246.81;;;6.51;87.21
18988;BME280;5494;51.796;10.952;2023-01-30T11:56:21;98240.97;;;6.47;87.15
18988;BME280;5494;51.796;10.952;2023-01-30T11:59:23;98244.13;;;6.54;86.42
18988;BME280;5494;51.796;10.952;2023-01-30T12:02:20;98244.88;;;6.56;87.06
18988;BME280;5494;51.796;10.952;2023-01-30T12:05:24;98224.59;;;6.48;86.14
18988;BME280;5494;51.796;10.952;2023-01-30T12:08:24;98232.06;;;6.36;86.63
18988;BME280;5494;51.796;10.952;2023-01-30T12:11:39;98218.88;;;6.42;86.10
18988;BME280;5494;51.796;10.952;2023-01-30T12:14:38;98220.66;;;6.58;85.24
18988;BME280;5494;51.796;10.952;2023-01-30T12:17:41;98213.44;;;6.84;85.37
18988;BME280;5494;51.796;10.952;2023-01-30T12:20:48;98220.66;;;6.94;84.53
18988;BME280;5494;51.796;10.952;2023-01-30T12:23:45;98227.13;;;6.67;88.58
18988;BME280;5494;51.796;10.952;2023-01-30T12:26:43;98214.47;;;6.06;99.35
18988;BME280;5494;51.796;10.952;2023-01-30T12:29:40;98212.97;;;5.62;100.00
18988;BME280;5494;51.796;10.952;2023-01-30T12:32:33;98210.03;;;5.30;100.00
18988;BME280;5494;51.796;10.952;2023-01-30T12:35:32;98201.09;;;5.19;100.00
18988;BME280;5494;51.796;10.952;2023-01-30T12:38:45;98203.78;;;5.15;100.00
18988;BME280;5494;51.796;10.952;2023-01-30T12:42:02;98202.16;;;5.33;100.00
18988;BME280;5494;51.796;10.952;2023-01-30T12:45:18;98180.63;;;5.54;100.00
18988;BME280;5494;51.796;10.952;2023-01-30T12:48:34;98184.34;;;5.68;100.00
18988;BME280;5494;51.796;10.952;2023-01-30T12:52:06;98168.75;;;5.71;97.65
18988;BME280;5494;51.796;10.952;2023-01-30T12:55:08;98191.56;;;5.80;93.40
18988;BME280;5494;51.796;10.952;2023-01-30T12:58:13;98175.16;;;6.01;91.12
18988;BME280;5494;51.796;10.952;2023-01-30T13:01:19;98166.97;;;6.10;88.19
18988;BME280;5494;51.796;10.952;2023-01-30T13:04:31;98164.88;;;6.18;87.93
18988;BME280;5494;51.796;10.952;2023-01-30T13:08:02;98169.28;;;6.35;86.27
18988;BME280;5494;51.796;10.952;2023-01-30T13:11:12;98163.59;;;6.46;85.79
18988;BME280;5494;51.796;10.952;2023-01-30T13:14:18;98157.28;;;6.34;86.39
18988;BME280;5494;51.796;10.952;2023-01-30T13:17:44;98174.50;;;6.33;87.57
18988;BME280;5494;51.796;10.952;2023-01-30T13:20:55;98168.38;;;5.99;95.21
18988;BME280;5494;51.796;10.952;2023-01-30T13:24:02;98177.09;;;5.57;100.00
18988;BME280;5494;51.796;10.952;2023-01-30T13:26:58;98186.00;;;5.50;100.00
18988;BME280;5494;51.796;10.952;2023-01-30T13:29:51;98194.00;;;5.44;100.00
18988;BME280;5494;51.796;10.952;2023-01-30T13:32:45;98220.78;;;5.40;100.00
18988;BME280;5494;51.796;10.952;2023-01-30T13:35:42;98252.25;;;5.26;100.00
18988;BME280;5494;51.796;10.952;2023-01-30T13:38:40;98243.88;;;5.01;100.00
18988;BME280;5494;51.796;10.952;2023-01-30T13:41:37;98272.34;;;4.76;100.00
18988;BME280;5494;51.796;10.952;2023-01-30T13:44:30;98285.66;;;4.64;100.00
18988;BME280;5494;51.796;10.952;2023-01-30T13:47:39;98297.50;;;4.46;100.00
18988;BME280;5494;51.796;10.952;2023-01-30T13:50:58;98302.25;;;4.33;100.00
18988;BME280;5494;51.796;10.952;2023-01-30T13:53:57;98310.78;;;4.11;100.00
18988;BME280;5494;51.796;10.952;2023-01-30T13:56:57;98293.50;;;3.91;100.00
18988;BME280;5494;51.796;10.952;2023-01-30T14:00:29;98306.63;;;3.83;100.00
18988;BME280;5494;51.796;10.952;2023-01-30T14:03:27;98319.28;;;3.88;100.00
18988;BME280;5494;51.796;10.952;2023-01-30T14:06:34;98323.81;;;3.81;100.00
18988;BME280;5494;51.796;10.952;2023-01-30T14:09:28;98344.00;;;3.67;100.00
18988;BME280;5494;51.796;10.952;2023-01-30T14:12:22;98337.94;;;3.70;100.00
18988;BME280;5494;51.796;10.952;2023-01-30T14:15:23;98323.84;;;3.55;100.00
18988;BME280;5494;51.796;10.952;2023-01-30T14:18:02;98331.69;;;3.52;100.00
18988;BME280;5494;51.796;10.952;2023-01-30T14:20:34;98315.31;;;3.54;100.00
18988;BME280;5494;51.796;10.952;2023-01-30T14:23:13;98298.00;;;3.60;100.00
18988;BME280;5494;51.796;10.952;2023-01-30T14:25:48;98289.31;;;3.64;100.00
18988;BME280;5494;51.796;10.952;2023-01-30T14:28:47;98284.81;;;3.70;100.00
18988;BME280;5494;51.796;10.952;2023-01-30T14:31:51;98280.19;;;3.80;100.00
18988;BME280;5494;51.796;10.952;2023-01-30T14:38:12;98283.94;;;3.94;100.00
18988;BME280;5494;51.796;10.952;2023-01-30T14:40:47;98295.81;;;3.99;100.00
18988;BME280;5494;51.796;10.952;2023-01-30T14:43:47;98312.56;;;4.09;100.00
18988;BME280;5494;51.796;10.952;2023-01-30T14:46:41;98319.75;;;4.24;100.00
18988;BME280;5494;51.796;10.952;2023-01-30T14:49:30;98320.97;;;4.37;100.00
18988;BME280;5494;51.796;10.952;2023-01-30T14:52:01;98336.00;;;4.49;100.00
18988;BME280;5494;51.796;10.952;2023-01-30T14:54:35;98322.19;;;4.50;100.00
18988;BME280;5494;51.796;10.952;2023-01-30T14:57:27;98334.97;;;4.53;100.00
18988;BME280;5494;51.796;10.952;2023-01-30T15:00:14;98327.56;;;4.67;100.00
18988;BME280;5494;51.796;10.952;2023-01-30T15:02:52;98319.66;;;4.72;100.00
18988;BME280;5494;51.796;10.952;2023-01-30T15:05:30;98309.03;;;4.81;100.00
18988;BME280;5494;51.796;10.952;2023-01-30T15:08:07;98320.97;;;4.84;100.00
18988;BME280;5494;51.796;10.952;2023-01-30T15:11:00;98348.25;;;4.88;100.00
18988;BME280;5494;51.796;10.952;2023-01-30T15:13:46;98366.97;;;4.91;100.00
18988;BME280;5494;51.796;10.952;2023-01-30T15:16:42;98380.41;;;4.99;100.00
18988;BME280;5494;51.796;10.952;2023-01-30T15:19:42;98375.34;;;4.98;100.00
18988;BME280;5494;51.796;10.952;2023-01-30T15:22:29;98403.59;;;4.99;100.00
18988;BME280;5494;51.796;10.952;2023-01-30T15:25:23;98407.66;;;4.83;100.00
18988;BME280;5494;51.796;10.952;2023-01-30T15:28:09;98405.47;;;4.72;100.00
18988;BME280;5494;51.796;10.952;2023-01-30T15:30:52;98417.53;;;4.70;100.00
18988;BME280;5494;51.796;10.952;2023-01-30T15:33:24;98415.09;;;4.67;100.00
18988;BME280;5494;51.796;10.952;2023-01-30T15:35:57;98428.63;;;4.72;100.00
18988;BME280;5494;51.796;10.952;2023-01-30T15:38:29;98439.66;;;4.76;100.00
18988;BME280;5494;51.796;10.952;2023-01-30T15:41:00;98447.31;;;4.78;100.00
18988;BME280;5494;51.796;10.952;2023-01-30T15:47:15;98435.38;;;4.77;100.00
18988;BME280;5494;51.796;10.952;2023-01-30T15:49:56;98429.50;;;4.71;100.00
18988;BME280;5494;51.796;10.952;2023-01-30T15:52:36;98445.75;;;4.73;100.00
18988;BME280;5494;51.796;10.952;2023-01-30T15:55:16;98428.41;;;4.79;100.00
18988;BME280;5494;51.796;10.952;2023-01-30T15:57:49;98438.59;;;4.82;100.00
18988;BME280;5494;51.796;10.952;2023-01-30T16:00:26;98434.44;;;4.78;100.00
18988;BME280;5494;51.796;10.952;2023-01-30T16:02:57;98439.91;;;4.70;100.00
18988;BME280;5494;51.796;10.952;2023-01-30T16:05:27;98453.56;;;4.70;100.00
18988;BME280;5494;51.796;10.952;2023-01-30T16:07:57;98469.19;;;4.66;100.00
18988;BME280;5494;51.796;10.952;2023-01-30T16:10:29;98462.47;;;4.62;100.00
18988;BME280;5494;51.796;10.952;2023-01-30T16:13:02;98487.00;;;4.72;100.00
18988;BME280;5494;51.796;10.952;2023-01-30T16:15:34;98493.72;;;4.76;100.00
18988;BME280;5494;51.796;10.952;2023-01-30T16:18:20;98502.16;;;4.80;100.00
18988;BME280;5494;51.796;10.952;2023-01-30T16:20:53;98493.47;;;4.84;100.00
18988;BME280;5494;51.796;10.952;2023-01-30T16:23:53;98511.50;;;4.84;100.00
18988;BME280;5494;51.796;10.952;2023-01-30T16:26:24;98506.03;;;4.91;100.00
18988;BME280;5494;51.796;10.952;2023-01-30T16:29:01;98514.41;;;4.98;100.00
18988;BME280;5494;51.796;10.952;2023-01-30T16:31:32;98510.19;;;4.95;100.00
18988;BME280;5494;51.796;10.952;2023-01-30T16:34:00;98501.47;;;4.99;99.60
18988;BME280;5494;51.796;10.952;2023-01-30T16:36:32;98513.22;;;5.06;98.89
18988;BME280;5494;51.796;10.952;2023-01-30T16:39:27;98517.72;;;5.01;99.80
18988;BME280;5494;51.796;10.952;2023-01-30T16:41:59;98532.97;;;5.06;100.00
18988;BME280;5494;51.796;10.952;2023-01-30T16:44:29;98533.69;;;5.11;99.69
18988;BME280;5494;51.796;10.952;2023-01-30T16:47:01;98559.22;;;5.17;99.71
18988;BME280;5494;51.796;10.952;2023-01-30T16:49:41;98554.69;;;5.24;98.86
18988;BME280;5494;51.796;10.952;2023-01-30T16:52:17;98517.31;;;5.35;97.44
18988;BME280;5494;51.796;10.952;2023-01-30T16:54:50;98577.38;;;5.37;97.86
18988;BME280;5494;51.796;10.952;2023-01-30T16:57:28;98599.78;;;5.35;98.12
18988;BME280;5494;51.796;10.952;2023-01-30T17:00:05;98600.94;;;5.27;100.00
18988;BME280;5494;51.796;10.952;2023-01-30T17:02:39;98604.13;;;5.10;100.00
18988;BME280;5494;51.796;10.952;2023-01-30T17:05:18;98630.19;;;5.01;100.00
18988;BME280;5494;51.796;10.952;2023-01-30T17:07:49;98624.31;;;4.97;100.00
18988;BME280;5494;51.796;10.952;2023-01-30T17:10:50;98619.66;;;5.07;100.00
18988;BME280;5494;51.796;10.952;2023-01-30T17:13:37;98655.84;;;5.04;100.00
18988;BME280;5494;51.796;10.952;2023-01-30T17:16:32;98647.13;;;5.08;100.00
18988;BME280;5494;51.796;10.952;2023-01-30T17:19:00;98654.16;;;5.03;100.00
18988;BME280;5494;51.796;10.952;2023-01-30T17:21:35;98658.47;;;5.02;100.00
18988;BME280;5494;51.796;10.952;2023-01-30T17:24:05;98656.41;;;4.87;100.00
18988;BME280;5494;51.796;10.952;2023-01-30T17:26:33;98659.28;;;4.78;100.00
18988;BME280;5494;51.796;10.952;2023-01-30T17:29:02;98672.50;;;4.67;100.00
18988;BME280;5494;51.796;10.952;2023-01-30T17:31:35;98668.63;;;4.54;100.00
18988;BME280;5494;51.796;10.952;2023-01-30T17:34:03;98672.06;;;4.55;100.00
18988;BME280;5494;51.796;10.952;2023-01-30T17:36:31;98673.91;;;4.50;100.00
18988;BME280;5494;51.796;10.952;2023-01-30T17:38:59;98656.66;;;4.53;100.00
18988;BME280;5494;51.796;10.952;2023-01-30T17:41:29;98693.56;;;4.52;100.00
18988;BME280;5494;51.796;10.952;2023-01-30T17:43:59;98703.97;;;4.49;100.00
18988;BME280;5494;51.796;10.952;2023-01-30T17:46:34;98736.03;;;4.38;100.00
18988;BME280;5494;51.796;10.952;2023-01-30T17:49:03;98741.72;;;4.21;100.00
18988;BME280;5494;51.796;10.952;2023-01-30T17:51:31;98753.47;;;3.99;100.00
18988;BME280;5494;51.796;10.952;2023-01-30T17:53:59;98754.88;;;3.79;100.00
18988;BME280;5494;51.796;10.952;2023-01-30T17:56:31;98732.16;;;3.64;100.00
18988;BME280;5494;51.796;10.952;2023-01-30T17:59:05;98747.81;;;3.55;100.00
18988;BME280;5494;51.796;10.952;2023-01-30T18:01:35;98756.66;;;3.45;100.00